Time;durP1;ratioP1;P1;durP2;ratioP2;P2;SDS_P1;SDS_P2;PMS_P1;PMS_P2;Temp;Humidity;BMP_temperature;BMP_pressure;BME280_temperature;BME280_humidity;BME280_pressure;Samples;Min_cycle;Max_cycle;Signal;HPM_P1;HPM_P2
2023/03/22 00:02:21;;;;;;;20.93;13.90;;;;;;;;;;5053643;28;20603;-84
2023/03/22 00:04:49;;;;;;;20.60;12.13;;;;;;;;;;5054304;28;20266;-84
2023/03/22 00:07:16;;;;;;;10.60;7.93;;;;;;;;;;5053529;28;20234;-84
2023/03/22 00:09:43;;;;;;;14.47;9.73;;;;;;;;;;5054142;28;20210;-84
2023/03/22 00:12:10;;;;;;;9.00;7.77;;;;;;;;;;5053366;28;20245;-83
2023/03/22 00:14:37;;;;;;;8.13;6.93;;;;;;;;;;5054097;28;20568;-83
2023/03/22 00:17:05;;;;;;;7.77;6.30;;;;;;;;;;5053306;28;20226;-84
2023/03/22 00:19:33;;;;;;;7.00;6.27;;;;;;;;;;5060739;28;20212;-84
2023/03/22 00:22:00;;;;;;;28.40;15.30;;;;;;;;;;5072182;28;20291;-84
2023/03/22 00:24:27;;;;;;;18.17;9.93;;;;;;;;;;5074453;28;20243;-84
2023/03/22 00:26:55;;;;;;;12.63;9.30;;;;;;;;;;5034499;28;20230;-84
2023/03/22 00:29:23;;;;;;;61.07;30.73;;;;;;;;;;5055428;28;20213;-84
2023/03/22 00:31:50;;;;;;;12.97;9.07;;;;;;;;;;5072889;28;20674;-84
2023/03/22 00:34:19;;;;;;;49.83;27.43;;;;;;;;;;5073756;28;20212;-84
2023/03/22 00:36:47;;;;;;;36.27;20.57;;;;;;;;;;5059489;28;20202;-83
2023/03/22 00:39:14;;;;;;;46.97;25.77;;;;;;;;;;5054226;28;20257;-83
2023/03/22 00:41:42;;;;;;;37.40;22.70;;;;;;;;;;5060564;28;20205;-84
2023/03/22 00:44:09;;;;;;;35.40;21.30;;;;;;;;;;5073306;28;20205;-83
2023/03/22 00:46:36;;;;;;;13.00;9.23;;;;;;;;;;5072643;28;20707;-84
2023/03/22 07:20:47;;;;;;;2.80;2.60;;;;;;;;;;5063131;22;20190;-85
2023/03/22 07:23:15;;;;;;;4.37;2.80;;;;;;;;;;5054101;28;20234;-85
2023/03/22 07:25:42;;;;;;;3.63;3.20;;;;;;;;;;5054947;28;20213;-85
2023/03/22 07:28:10;;;;;;;5.57;3.83;;;;;;;;;;5054227;28;20237;-85
2023/03/22 07:30:37;;;;;;;4.13;3.43;;;;;;;;;;5053371;28;20792;-86
2023/03/22 07:33:04;;;;;;;4.70;3.40;;;;;;;;;;5029708;28;20661;-85
2023/03/22 07:35:33;;;;;;;3.23;2.67;;;;;;;;;;5035006;28;20194;-85
2023/03/22 07:38:01;;;;;;;4.67;3.33;;;;;;;;;;5034591;28;20238;-85
2023/03/22 07:40:28;;;;;;;4.37;3.33;;;;;;;;;;5034875;28;20187;-85
2023/03/22 07:42:57;;;;;;;6.77;3.00;;;;;;;;;;5033573;28;20722;-85
2023/03/22 07:45:25;;;;;;;4.03;2.80;;;;;;;;;;5032078;28;20218;-85
2023/03/22 07:47:52;;;;;;;5.10;3.40;;;;;;;;;;5033472;28;20239;-85
2023/03/22 07:50:20;;;;;;;2.73;2.53;;;;;;;;;;5034027;28;20195;-84
2023/03/22 07:52:47;;;;;;;4.87;3.40;;;;;;;;;;5032617;28;20242;-84
2023/03/22 07:55:15;;;;;;;6.57;2.90;;;;;;;;;;5033199;28;20199;-85
2023/03/22 07:57:42;;;;;;;8.20;3.50;;;;;;;;;;5033197;28;20235;-84
2023/03/22 08:00:10;;;;;;;4.83;2.57;;;;;;;;;;5033543;28;20709;-84
2023/03/22 08:02:38;;;;;;;3.27;2.03;;;;;;;;;;5032470;28;20245;-86
2023/03/22 08:05:07;;;;;;;2.67;2.37;;;;;;;;;;5033001;28;20257;-85
2023/03/22 08:07:34;;;;;;;3.47;2.50;;;;;;;;;;5033121;28;20245;-85
2023/03/22 08:10:01;;;;;;;5.97;2.87;;;;;;;;;;5044455;28;20213;-85
2023/03/22 08:12:31;;;;;;;2.50;2.30;;;;;;;;;;5052093;28;20242;-85
2023/03/22 08:14:58;;;;;;;2.70;2.40;;;;;;;;;;5038360;28;20210;-84
2023/03/22 08:17:25;;;;;;;3.97;2.60;;;;;;;;;;5032969;28;20235;-85
2023/03/22 08:19:54;;;;;;;2.63;1.83;;;;;;;;;;5033493;28;20187;-84
2023/03/22 08:22:23;;;;;;;3.10;2.50;;;;;;;;;;5032215;28;20265;-84
2023/03/22 08:24:51;;;;;;;3.03;2.33;;;;;;;;;;5032717;28;20286;-86
2023/03/22 08:27:18;;;;;;;3.93;2.33;;;;;;;;;;5032396;28;20234;-85
2023/03/22 08:29:47;;;;;;;5.27;3.43;;;;;;;;;;5033244;28;20238;-84
2023/03/22 08:32:15;;;;;;;4.60;2.70;;;;;;;;;;5032023;28;20242;-85
2023/03/22 08:34:43;;;;;;;2.93;2.17;;;;;;;;;;5032944;28;20213;-84
2023/03/22 08:37:11;;;;;;;4.87;2.33;;;;;;;;;;5032447;28;20234;-84
2023/03/22 08:39:38;;;;;;;4.47;2.20;;;;;;;;;;5031151;28;20563;-84
2023/03/22 08:42:05;;;;;;;1.60;1.50;;;;;;;;;;5024538;28;20637;-85
2023/03/22 08:44:32;;;;;;;2.00;1.80;;;;;;;;;;5020712;28;20686;-84
2023/03/22 08:47:01;;;;;;;2.30;2.10;;;;;;;;;;5032064;28;20914;-84
2023/03/22 08:49:28;;;;;;;3.33;2.67;;;;;;;;;;5033058;28;20206;-85
2023/03/22 08:51:56;;;;;;;3.07;2.00;;;;;;;;;;5031587;28;20238;-85
2023/03/22 08:54:23;;;;;;;4.03;1.80;;;;;;;;;;5032404;28;20203;-85
2023/03/22 08:56:50;;;;;;;2.43;1.67;;;;;;;;;;5031846;28;20230;-85
2023/03/22 08:59:17;;;;;;;2.33;1.73;;;;;;;;;;5032107;28;20210;-84
2023/03/22 09:01:45;;;;;;;2.83;1.93;;;;;;;;;;5027106;28;20222;-84
2023/03/22 09:04:14;;;;;;;2.73;1.70;;;;;;;;;;5015630;28;20211;-85
2023/03/22 09:06:44;;;;;;;3.83;1.77;;;;;;;;;;5030919;28;20901;-85
2023/03/22 09:09:11;;;;;;;1.40;1.30;;;;;;;;;;5029746;28;20732;-85
2023/03/22 09:11:40;;;;;;;1.73;1.63;;;;;;;;;;5031148;28;20585;-85
2023/03/22 09:14:07;;;;;;;3.10;2.07;;;;;;;;;;5044289;28;20190;-85
2023/03/22 09:16:34;;;;;;;6.10;2.13;;;;;;;;;;5030505;28;20198;-86
2023/03/22 09:19:02;;;;;;;5.13;2.30;;;;;;;;;;5032273;28;20274;-85
2023/03/22 09:21:30;;;;;;;3.13;2.30;;;;;;;;;;5030871;28;20284;-86
2023/03/22 09:23:57;;;;;;;4.17;2.53;;;;;;;;;;5031476;28;20642;-84
2023/03/22 09:26:25;;;;;;;3.03;2.10;;;;;;;;;;5017882;28;20210;-85
2023/03/22 09:28:53;;;;;;;2.87;2.10;;;;;;;;;;5031810;28;20580;-85
2023/03/22 09:31:20;;;;;;;1.90;1.80;;;;;;;;;;5031539;28;20242;-85
2023/03/22 09:33:47;;;;;;;1.63;1.53;;;;;;;;;;5031353;28;20242;-85
2023/03/22 09:36:14;;;;;;;1.93;1.83;;;;;;;;;;5031398;28;20195;-86
2023/03/22 09:38:44;;;;;;;3.73;1.97;;;;;;;;;;5031287;28;20235;-83
2023/03/22 09:41:14;;;;;;;1.60;1.50;;;;;;;;;;5031051;28;20238;-85
2023/03/22 09:43:43;;;;;;;1.67;1.57;;;;;;;;;;5029478;28;20226;-86
2023/03/22 09:46:13;;;;;;;2.87;1.77;;;;;;;;;;5031045;28;20234;-84
2023/03/22 09:48:41;;;;;;;1.87;1.77;;;;;;;;;;5030839;28;20689;-85
2023/03/22 09:51:17;;;;;;;2.53;1.63;;;;;;;;;;5030860;28;20233;-84
2023/03/22 09:53:46;;;;;;;2.03;1.83;;;;;;;;;;5030864;28;20261;-84
2023/03/22 09:56:15;;;;;;;3.20;1.90;;;;;;;;;;5030991;28;20602;-84
2023/03/22 09:58:48;;;;;;;1.43;1.20;;;;;;;;;;5030815;28;20260;-86
2023/03/22 10:01:17;;;;;;;2.30;1.80;;;;;;;;;;5030819;28;20226;-85
2023/03/22 10:03:59;;;;;;;2.90;1.67;;;;;;;;;;5030835;28;20241;-85
2023/03/22 10:06:27;;;;;;;3.77;1.80;;;;;;;;;;5030657;28;20246;-86
2023/03/22 10:09:00;;;;;;;2.10;1.60;;;;;;;;;;5031233;28;20643;-86
2023/03/22 10:11:32;;;;;;;1.63;1.50;;;;;;;;;;5029523;28;20223;-85
2023/03/22 10:14:02;;;;;;;1.67;1.57;;;;;;;;;;5030400;28;20207;-85
2023/03/22 10:16:31;;;;;;;1.50;1.37;;;;;;;;;;5030461;28;20852;-84
2023/03/22 10:19:03;;;;;;;1.10;1.10;;;;;;;;;;5013221;28;20587;-86
2023/03/22 10:21:32;;;;;;;1.27;1.17;;;;;;;;;;5010118;28;20227;-86
2023/03/22 10:24:03;;;;;;;1.40;1.30;;;;;;;;;;5011110;28;20695;-86
2023/03/22 10:26:32;;;;;;;1.10;1.00;;;;;;;;;;5025461;28;20218;-86
2023/03/22 10:29:02;;;;;;;3.23;1.30;;;;;;;;;;5035093;28;20198;-87
2023/03/22 10:31:30;;;;;;;1.65;1.30;;;;;;;;;;5034379;28;20233;-86
2023/03/22 10:33:59;;;;;;;1.33;1.17;;;;;;;;;;5035244;28;20663;-86
2023/03/22 10:36:29;;;;;;;1.58;1.17;;;;;;;;;;5034247;28;20209;-88
2023/03/22 10:38:58;;;;;;;2.23;1.10;;;;;;;;;;5035405;28;20191;-86
2023/03/22 10:41:27;;;;;;;1.40;1.30;;;;;;;;;;5034672;28;20230;-86
2023/03/22 10:43:57;;;;;;;0.95;0.95;;;;;;;;;;5034683;28;20226;-86
2023/03/22 10:46:26;;;;;;;1.98;1.60;;;;;;;;;;5035134;28;20799;-86
2023/03/22 10:48:55;;;;;;;1.27;1.17;;;;;;;;;;5034973;28;20313;-86
2023/03/22 10:51:26;;;;;;;1.70;1.33;;;;;;;;;;5034008;28;20237;-87
2023/03/22 10:53:56;;;;;;;1.33;1.20;;;;;;;;;;5036084;28;20222;-87
2023/03/22 10:56:24;;;;;;;1.53;1.40;;;;;;;;;;5034557;28;20238;-86
2023/03/22 10:58:53;;;;;;;1.35;1.08;;;;;;;;;;5034410;28;20236;-87
2023/03/22 11:01:26;;;;;;;1.50;1.40;;;;;;;;;;5034027;28;20234;-87
2023/03/22 11:03:55;;;;;;;1.80;1.30;;;;;;;;;;5033857;28;20606;-87
2023/03/22 11:06:24;;;;;;;1.65;1.40;;;;;;;;;;5034494;28;20234;-85
2023/03/22 11:08:52;;;;;;;2.40;1.25;;;;;;;;;;5032557;28;20348;-85
2023/03/22 11:11:23;;;;;;;1.40;1.30;;;;;;;;;;5032231;28;20314;-86
2023/03/22 11:13:54;;;;;;;2.25;1.30;;;;;;;;;;5033532;28;20238;-85
2023/03/22 11:16:21;;;;;;;1.52;1.42;;;;;;;;;;5033093;28;20746;-85
2023/03/22 11:18:49;;;;;;;1.05;1.05;;;;;;;;;;5033348;28;20231;-86
2023/03/22 11:21:17;;;;;;;0.90;0.90;;;;;;;;;;5016469;28;20805;-87
2023/03/22 11:23:52;;;;;;;1.92;1.52;;;;;;;;;;5013525;28;20618;-86
2023/03/22 11:26:26;;;;;;;1.25;1.23;;;;;;;;;;5021808;28;20218;-87
2023/03/22 11:29:01;;;;;;;0.93;0.93;;;;;;;;;;5033609;28;20214;-86
2023/03/22 11:31:58;;;;;;;5.38;1.27;;;;;;;;;;5029730;28;20230;-87
2023/03/22 11:34:26;;;;;;;0.80;0.80;;;;;;;;;;4944233;28;20204;-87
2023/03/22 11:36:56;;;;;;;1.75;1.20;;;;;;;;;;5019125;28;20242;-87
2023/03/22 11:39:26;;;;;;;1.05;1.02;;;;;;;;;;5032980;28;20560;-85
2023/03/22 11:41:56;;;;;;;1.23;1.23;;;;;;;;;;5032567;28;20244;-86
2023/03/22 11:44:26;;;;;;;1.27;1.17;;;;;;;;;;5045341;28;20275;-85
2023/03/22 11:46:56;;;;;;;1.10;1.00;;;;;;;;;;5053073;28;20706;-86
2023/03/22 11:49:25;;;;;;;1.30;1.10;;;;;;;;;;5053918;28;20252;-84
2023/03/22 11:51:56;;;;;;;1.48;1.38;;;;;;;;;;5033946;28;20711;-83
2023/03/22 11:54:32;;;;;;;1.23;1.00;;;;;;;;;;5034006;28;20214;-84
2023/03/22 11:57:07;;;;;;;1.15;0.93;;;;;;;;;;5033179;28;20284;-83
2023/03/22 11:59:47;;;;;;;2.33;0.77;;;;;;;;;;5033493;28;20206;-84
2023/03/22 12:02:17;;;;;;;1.40;1.30;;;;;;;;;;5032805;28;20235;-83
2023/03/22 12:04:47;;;;;;;2.10;1.35;;;;;;;;;;5033229;28;20191;-83
2023/03/22 12:07:23;;;;;;;1.77;1.40;;;;;;;;;;5032734;28;20242;-84
2023/03/22 12:09:53;;;;;;;1.60;1.30;;;;;;;;;;5033086;28;20202;-83
2023/03/22 12:12:22;;;;;;;1.30;1.20;;;;;;;;;;5021314;28;20265;-83
2023/03/22 12:14:53;;;;;;;1.38;1.27;;;;;;;;;;5032439;28;20234;-83
2023/03/22 12:17:25;;;;;;;1.58;1.42;;;;;;;;;;5032359;28;20961;-84
2023/03/22 12:19:55;;;;;;;1.77;1.10;;;;;;;;;;5033108;28;20644;-83
2023/03/22 12:22:25;;;;;;;1.30;1.20;;;;;;;;;;5031489;28;20246;-83
2023/03/22 12:24:52;;;;;;;1.38;1.25;;;;;;;;;;5032771;28;20215;-85
2023/03/22 12:27:21;;;;;;;1.65;1.10;;;;;;;;;;5031544;28;20623;-85
2023/03/22 12:29:51;;;;;;;0.93;0.85;;;;;;;;;;5032134;28;20218;-84
2023/03/22 12:32:23;;;;;;;0.75;0.75;;;;;;;;;;5030751;28;20234;-84
2023/03/22 12:34:50;;;;;;;2.58;1.52;;;;;;;;;;5033023;28;20197;-84
2023/03/22 12:37:21;;;;;;;1.73;1.40;;;;;;;;;;5032129;28;20237;-83
2023/03/22 12:39:51;;;;;;;1.80;1.42;;;;;;;;;;5032916;28;20195;-84
2023/03/22 12:42:21;;;;;;;0.95;0.95;;;;;;;;;;5031092;28;20725;-84
2023/03/22 12:44:49;;;;;;;1.33;1.27;;;;;;;;;;5031705;28;20242;-83
2023/03/22 12:47:18;;;;;;;1.08;1.08;;;;;;;;;;5031633;28;20242;-84
2023/03/22 12:49:50;;;;;;;1.25;1.00;;;;;;;;;;5031604;28;20207;-84
2023/03/22 12:52:19;;;;;;;0.93;0.73;;;;;;;;;;5031424;28;20238;-84
2023/03/22 12:54:46;;;;;;;0.90;0.90;;;;;;;;;;5032251;28;20210;-83
2023/03/22 12:57:15;;;;;;;0.90;0.90;;;;;;;;;;5031275;28;20235;-83
2023/03/22 12:59:43;;;;;;;1.10;0.82;;;;;;;;;;5032439;28;20264;-83
2023/03/22 13:02:14;;;;;;;0.88;0.70;;;;;;;;;;5030869;28;20242;-84
2023/03/22 13:04:53;;;;;;;2.20;1.23;;;;;;;;;;5032045;28;20198;-83
2023/03/22 13:07:36;;;;;;;1.58;0.95;;;;;;;;;;5031266;28;20241;-83
2023/03/22 13:10:18;;;;;;;0.85;0.82;;;;;;;;;;5031018;28;20198;-85
2023/03/22 13:13:05;;;;;;;0.95;0.90;;;;;;;;;;5030151;28;20242;-86
2023/03/22 13:15:34;;;;;;;1.15;0.88;;;;;;;;;;5031764;28;20229;-86
2023/03/22 13:18:02;;;;;;;1.10;1.00;;;;;;;;;;5031432;28;20259;-86
2023/03/22 13:20:33;;;;;;;1.10;0.93;;;;;;;;;;5031355;28;20570;-85
2023/03/22 13:23:10;;;;;;;1.23;1.13;;;;;;;;;;5030782;28;20241;-83
2023/03/22 13:25:38;;;;;;;1.65;0.90;;;;;;;;;;5014435;28;20282;-83
2023/03/22 13:28:21;;;;;;;1.00;0.90;;;;;;;;;;5010534;28;20235;-83
2023/03/22 13:30:51;;;;;;;1.10;1.00;;;;;;;;;;5051584;22;21249;-84
2023/03/22 13:33:21;;;;;;;1.10;1.00;;;;;;;;;;5069947;28;20702;-84
2023/03/22 13:35:52;;;;;;;2.10;0.90;;;;;;;;;;5075078;28;20205;-85
2023/03/22 13:38:21;;;;;;;0.68;0.68;;;;;;;;;;5071294;28;20589;-86
2023/03/22 13:40:54;;;;;;;2.28;2.03;;;;;;;;;;5070048;28;20301;-82
2023/03/22 13:43:24;;;;;;;2.33;1.00;;;;;;;;;;5052987;28;20229;-82
2023/03/22 13:45:59;;;;;;;0.80;0.80;;;;;;;;;;5053977;28;20212;-82
2023/03/22 13:48:31;;;;;;;1.30;1.20;;;;;;;;;;5052545;28;20710;-82
2023/03/22 13:51:08;;;;;;;1.55;0.80;;;;;;;;;;5051470;28;20882;-82
2023/03/22 13:53:36;;;;;;;2.75;1.15;;;;;;;;;;5051765;28;20816;-83
2023/03/22 13:56:05;;;;;;;0.90;0.90;;;;;;;;;;5040815;28;20222;-81
2023/03/22 13:58:35;;;;;;;2.28;1.00;;;;;;;;;;5068071;28;20289;-81
2023/03/22 14:01:03;;;;;;;1.25;0.82;;;;;;;;;;5061723;28;20226;-83
2023/03/22 14:03:33;;;;;;;2.40;1.02;;;;;;;;;;5064371;28;20228;-82
2023/03/22 14:06:08;;;;;;;1.70;0.90;;;;;;;;;;5063769;28;20208;-82
2023/03/22 14:08:36;;;;;;;1.05;1.00;;;;;;;;;;5060194;28;20248;-81
2023/03/22 14:11:08;;;;;;;1.70;1.00;;;;;;;;;;5066162;28;20248;-82
2023/03/22 14:13:37;;;;;;;1.77;1.05;;;;;;;;;;5064732;28;20229;-83
2023/03/22 14:16:07;;;;;;;1.17;0.93;;;;;;;;;;5077373;28;20205;-81
2023/03/22 14:18:35;;;;;;;0.80;0.80;;;;;;;;;;5066293;28;20222;-82
2023/03/22 14:21:05;;;;;;;1.63;1.15;;;;;;;;;;5056222;28;20697;-82
2023/03/22 14:23:38;;;;;;;1.75;1.02;;;;;;;;;;5041343;28;20227;-85
2023/03/22 14:26:07;;;;;;;4.38;1.00;;;;;;;;;;5050205;28;20190;-86
2023/03/22 14:28:35;;;;;;;1.55;0.95;;;;;;;;;;5035603;28;20234;-85
2023/03/22 14:31:03;;;;;;;0.70;0.70;;;;;;;;;;5030077;28;20262;-84
2023/03/22 14:33:36;;;;;;;1.58;1.05;;;;;;;;;;5047981;28;20321;-85
2023/03/22 14:36:04;;;;;;;2.10;1.02;;;;;;;;;;5050604;28;20674;-85
2023/03/22 14:38:33;;;;;;;1.02;0.90;;;;;;;;;;5049589;28;20230;-84
2023/03/22 14:41:09;;;;;;;0.98;0.98;;;;;;;;;;5050009;28;20266;-84
2023/03/22 14:43:36;;;;;;;1.15;1.05;;;;;;;;;;5050029;28;20233;-85
2023/03/22 14:46:07;;;;;;;1.60;1.13;;;;;;;;;;5050692;28;20204;-85
2023/03/22 14:48:36;;;;;;;1.02;0.93;;;;;;;;;;5050128;28;20234;-84
2023/03/22 14:51:06;;;;;;;1.60;1.00;;;;;;;;;;5050089;28;20722;-83
2023/03/22 14:53:35;;;;;;;1.40;1.30;;;;;;;;;;5049659;28;20316;-84
2023/03/22 14:56:04;;;;;;;1.30;1.20;;;;;;;;;;5050564;28;20233;-85
2023/03/22 14:58:35;;;;;;;1.15;1.00;;;;;;;;;;5050291;28;20261;-84
2023/03/22 15:01:02;;;;;;;1.42;0.98;;;;;;;;;;5049666;28;20230;-83
2023/03/22 15:03:31;;;;;;;1.90;1.00;;;;;;;;;;5055250;28;20241;-83
2023/03/22 15:05:59;;;;;;;2.55;1.25;;;;;;;;;;5061852;28;20245;-83
2023/03/22 15:08:27;;;;;;;0.80;0.80;;;;;;;;;;5078661;28;20237;-82
2023/03/22 15:10:55;;;;;;;1.52;1.27;;;;;;;;;;5077875;28;20786;-83
2023/03/22 15:13:24;;;;;;;1.02;1.00;;;;;;;;;;5069621;28;20238;-83
2023/03/22 15:15:52;;;;;;;2.83;1.23;;;;;;;;;;5054838;28;20210;-84
2023/03/22 15:18:21;;;;;;;1.40;1.30;;;;;;;;;;5053306;28;20237;-84
2023/03/22 15:20:50;;;;;;;1.20;1.08;;;;;;;;;;5053618;28;20751;-83
2023/03/22 15:23:18;;;;;;;1.58;1.40;;;;;;;;;;5052797;28;20298;-84
2023/03/22 15:25:46;;;;;;;2.28;1.10;;;;;;;;;;5053672;28;20194;-86
2023/03/22 15:28:15;;;;;;;1.17;1.00;;;;;;;;;;5052827;28;20234;-85
2023/03/22 15:30:45;;;;;;;2.00;0.90;;;;;;;;;;5052888;28;20687;-84
2023/03/22 15:33:20;;;;;;;0.75;0.73;;;;;;;;;;5051524;28;20283;-83
2023/03/22 15:35:47;;;;;;;0.80;0.80;;;;;;;;;;5052894;28;20204;-84
2023/03/22 15:38:15;;;;;;;1.02;0.82;;;;;;;;;;5048112;28;20238;-84
2023/03/22 15:40:43;;;;;;;2.55;0.88;;;;;;;;;;5043342;28;20194;-83
2023/03/22 15:43:17;;;;;;;1.20;1.10;;;;;;;;;;5052152;28;20776;-83
2023/03/22 15:45:45;;;;;;;1.20;1.10;;;;;;;;;;5053045;28;20245;-84
2023/03/22 15:48:16;;;;;;;1.92;1.20;;;;;;;;;;5052017;28;20770;-85
2023/03/22 15:50:49;;;;;;;1.08;0.98;;;;;;;;;;5052542;28;20233;-85
2023/03/22 15:53:27;;;;;;;1.70;1.00;;;;;;;;;;5052065;28;20238;-85
2023/03/22 15:55:55;;;;;;;1.63;1.13;;;;;;;;;;5069463;28;20201;-84
2023/03/22 15:58:28;;;;;;;0.90;0.90;;;;;;;;;;5072274;28;20734;-84
2023/03/22 16:00:55;;;;;;;2.45;1.20;;;;;;;;;;5072475;28;20301;-84
2023/03/22 16:03:22;;;;;;;1.83;0.88;;;;;;;;;;5066584;28;20233;-84
2023/03/22 16:05:50;;;;;;;1.58;1.30;;;;;;;;;;5052907;28;20540;-83
2023/03/22 16:08:18;;;;;;;1.75;1.13;;;;;;;;;;5052018;28;20238;-84
2023/03/22 16:10:46;;;;;;;2.55;1.13;;;;;;;;;;5052391;28;20206;-83
2023/03/22 16:13:19;;;;;;;1.52;1.13;;;;;;;;;;5055498;28;20283;-85
2023/03/22 16:15:46;;;;;;;1.05;0.90;;;;;;;;;;5052559;28;20259;-87
2023/03/22 16:18:15;;;;;;;2.92;0.98;;;;;;;;;;5032529;28;20258;-87
2023/03/22 16:20:42;;;;;;;1.25;1.13;;;;;;;;;;5052029;28;20206;-86
2023/03/22 16:23:13;;;;;;;1.65;1.30;;;;;;;;;;5051697;28;20241;-85
2023/03/22 16:25:40;;;;;;;3.65;2.05;;;;;;;;;;5051661;28;20573;-85
2023/03/22 16:28:08;;;;;;;1.55;1.45;;;;;;;;;;5061099;28;20237;-85
2023/03/22 16:30:35;;;;;;;2.15;1.30;;;;;;;;;;5072412;28;20219;-85
2023/03/22 16:33:02;;;;;;;2.55;1.25;;;;;;;;;;5063879;28;20229;-86
2023/03/22 16:35:29;;;;;;;4.10;1.38;;;;;;;;;;5052582;28;20213;-87
2023/03/22 16:37:56;;;;;;;1.13;1.08;;;;;;;;;;5051973;28;20232;-86
2023/03/22 16:40:27;;;;;;;1.67;1.30;;;;;;;;;;5052420;28;20544;-87
2023/03/22 16:42:54;;;;;;;1.88;1.40;;;;;;;;;;5051603;28;20288;-86
2023/03/22 16:45:22;;;;;;;2.38;1.35;;;;;;;;;;5052186;28;20231;-85
2023/03/22 16:47:50;;;;;;;1.92;1.75;;;;;;;;;;5051476;28;20283;-86
2023/03/22 16:50:17;;;;;;;1.83;1.40;;;;;;;;;;5052026;28;20202;-85
2023/03/22 16:52:44;;;;;;;1.00;1.00;;;;;;;;;;5043583;28;20237;-86
2023/03/22 16:55:15;;;;;;;1.92;1.77;;;;;;;;;;5047268;28;20622;-86
2023/03/22 16:57:43;;;;;;;2.42;1.67;;;;;;;;;;5051225;28;20240;-85
2023/03/22 17:00:11;;;;;;;2.22;1.48;;;;;;;;;;5033452;28;20253;-85
2023/03/22 17:02:39;;;;;;;2.90;1.50;;;;;;;;;;5037769;28;20601;-84
2023/03/22 17:05:07;;;;;;;0.80;0.80;;;;;;;;;;5051627;28;20661;-86
2023/03/22 17:07:35;;;;;;;1.75;0.88;;;;;;;;;;5041712;28;20238;-86
2023/03/22 17:10:02;;;;;;;1.15;0.80;;;;;;;;;;5031664;28;20593;-87
2023/03/22 17:12:31;;;;;;;1.45;1.00;;;;;;;;;;5029680;28;20280;-86
2023/03/22 17:15:01;;;;;;;0.90;0.90;;;;;;;;;;5043531;28;20205;-86
2023/03/22 17:17:28;;;;;;;1.33;1.27;;;;;;;;;;5051222;28;20237;-88
2023/03/22 17:19:56;;;;;;;1.15;1.05;;;;;;;;;;5051446;28;20684;-87
2023/03/22 17:22:23;;;;;;;0.80;0.80;;;;;;;;;;5050586;28;20748;-87
2023/03/22 17:24:50;;;;;;;1.40;1.30;;;;;;;;;;5051362;28;20693;-87
2023/03/22 17:27:17;;;;;;;1.95;1.73;;;;;;;;;;5050638;28;20760;-87
2023/03/22 17:29:44;;;;;;;1.92;1.50;;;;;;;;;;5051541;28;20237;-87
2023/03/22 17:32:14;;;;;;;1.70;1.60;;;;;;;;;;5050164;28;20233;-87
2023/03/22 17:34:42;;;;;;;1.65;1.55;;;;;;;;;;5051639;28;20202;-87
2023/03/22 17:37:09;;;;;;;1.55;1.42;;;;;;;;;;5050647;28;20261;-88
2023/03/22 17:39:37;;;;;;;2.33;1.75;;;;;;;;;;5051830;28;20648;-88
2023/03/22 17:42:05;;;;;;;2.35;1.70;;;;;;;;;;5050729;28;20647;-88
2023/03/22 17:44:32;;;;;;;2.97;1.67;;;;;;;;;;5061112;28;20221;-89
2023/03/22 17:46:59;;;;;;;2.20;1.80;;;;;;;;;;5050657;28;20230;-88
2023/03/22 17:49:28;;;;;;;2.00;1.80;;;;;;;;;;5059123;28;20305;-91
2023/03/22 17:51:55;;;;;;;2.20;2.00;;;;;;;;;;5061994;28;20693;-90
2023/03/22 17:54:22;;;;;;;4.65;2.47;;;;;;;;;;5051064;28;20205;-90
2023/03/22 17:56:49;;;;;;;3.20;2.47;;;;;;;;;;5050265;28;20226;-88
2023/03/22 17:59:17;;;;;;;3.88;2.90;;;;;;;;;;5049864;28;20229;-88
2023/03/22 18:01:44;;;;;;;3.85;3.03;;;;;;;;;;5049143;28;20226;-89
2023/03/22 18:04:12;;;;;;;3.10;2.40;;;;;;;;;;5049459;28;20197;-88
2023/03/22 18:06:42;;;;;;;3.78;3.17;;;;;;;;;;5050221;28;20198;-89
2023/03/22 18:09:09;;;;;;;3.15;2.83;;;;;;;;;;5050237;28;20254;-88
2023/03/22 18:11:36;;;;;;;3.20;2.67;;;;;;;;;;5049439;28;20261;-89
2023/03/22 18:14:03;;;;;;;2.80;2.35;;;;;;;;;;5050552;28;20206;-88
2023/03/22 18:16:31;;;;;;;4.85;2.50;;;;;;;;;;5050083;28;20202;-88
2023/03/22 18:19:02;;;;;;;3.37;2.87;;;;;;;;;;5050411;28;20190;-87
2023/03/22 18:21:29;;;;;;;3.43;2.80;;;;;;;;;;5048871;28;20713;-87
2023/03/22 18:23:58;;;;;;;3.53;3.10;;;;;;;;;;5050524;28;20209;-88
2023/03/22 18:26:27;;;;;;;3.67;2.50;;;;;;;;;;5050223;28;20206;-86
2023/03/22 18:28:55;;;;;;;3.90;2.40;;;;;;;;;;5049256;28;20272;-87
2023/03/22 18:31:22;;;;;;;3.27;2.50;;;;;;;;;;5054513;28;20225;-87
2023/03/22 18:33:49;;;;;;;3.80;2.90;;;;;;;;;;5053849;28;20238;-88
2023/03/22 18:36:16;;;;;;;4.47;2.60;;;;;;;;;;5070245;28;20295;-88
2023/03/22 18:38:45;;;;;;;3.87;2.70;;;;;;;;;;5069961;28;20233;-88
2023/03/22 18:41:14;;;;;;;6.47;4.57;;;;;;;;;;5070460;28;20225;-88
2023/03/22 18:43:41;;;;;;;7.47;6.50;;;;;;;;;;5056150;28;20317;-88
2023/03/22 18:46:09;;;;;;;8.43;6.40;;;;;;;;;;5050616;28;20202;-88
2023/03/22 18:48:36;;;;;;;7.17;5.80;;;;;;;;;;5051301;28;20600;-89
2023/03/22 18:51:04;;;;;;;5.07;3.80;;;;;;;;;;5053930;28;20584;-89
2023/03/22 18:53:32;;;;;;;3.33;3.10;;;;;;;;;;5053722;28;20248;-88
2023/03/22 18:55:59;;;;;;;2.90;2.60;;;;;;;;;;5054802;28;20213;-88
2023/03/22 18:58:27;;;;;;;4.10;3.23;;;;;;;;;;5053613;28;20303;-88
2023/03/22 19:00:54;;;;;;;3.63;3.30;;;;;;;;;;5066536;28;20213;-88
2023/03/22 19:03:22;;;;;;;3.60;3.30;;;;;;;;;;5053075;28;20750;-87
2023/03/22 19:05:49;;;;;;;3.13;2.83;;;;;;;;;;5054365;28;20241;-88
2023/03/22 19:08:17;;;;;;;4.53;3.50;;;;;;;;;;5053569;28;20229;-88
2023/03/22 19:10:44;;;;;;;5.57;3.67;;;;;;;;;;5053521;28;20701;-88
2023/03/22 19:13:12;;;;;;;3.13;2.90;;;;;;;;;;5047016;28;20799;-88
2023/03/22 19:15:40;;;;;;;5.00;3.33;;;;;;;;;;5054002;28;20559;-88
2023/03/22 19:18:10;;;;;;;3.53;2.90;;;;;;;;;;5053502;28;20234;-87
2023/03/22 19:20:39;;;;;;;5.87;3.40;;;;;;;;;;5053594;28;20183;-87
2023/03/22 19:23:07;;;;;;;3.47;3.17;;;;;;;;;;5053041;28;20233;-87
2023/03/22 19:25:34;;;;;;;5.10;3.93;;;;;;;;;;5054190;28;20201;-89
2023/03/22 19:28:01;;;;;;;10.20;6.03;;;;;;;;;;5053755;28;20233;-89
2023/03/22 19:30:28;;;;;;;6.60;4.33;;;;;;;;;;5054350;28;20222;-88
2023/03/22 19:32:57;;;;;;;19.17;10.43;;;;;;;;;;5053309;28;20238;-92
2023/03/22 19:35:24;;;;;;;17.00;8.87;;;;;;;;;;5053703;28;20210;-92
2023/03/22 19:37:51;;;;;;;25.33;12.43;;;;;;;;;;5053186;28;20240;-90
2023/03/22 19:40:18;;;;;;;25.20;11.90;;;;;;;;;;5054252;28;20305;-88
2023/03/22 19:42:45;;;;;;;12.53;6.17;;;;;;;;;;5053204;28;20391;-89
2023/03/22 19:45:12;;;;;;;7.23;3.93;;;;;;;;;;5053501;28;20216;-90
2023/03/22 19:47:39;;;;;;;5.03;3.30;;;;;;;;;;5053307;28;20238;-89
2023/03/22 19:50:10;;;;;;;6.37;4.30;;;;;;;;;;5054069;28;20260;-90
2023/03/22 19:52:37;;;;;;;4.43;3.77;;;;;;;;;;5053053;28;20237;-89
2023/03/22 19:55:04;;;;;;;3.87;3.40;;;;;;;;;;5054214;28;20573;-89
2023/03/22 19:57:32;;;;;;;4.60;3.60;;;;;;;;;;5053361;28;20237;-89
2023/03/22 20:00:00;;;;;;;5.03;3.50;;;;;;;;;;5053455;28;20230;-88
2023/03/22 20:02:27;;;;;;;4.80;3.33;;;;;;;;;;5053208;28;20262;-89
2023/03/22 20:04:55;;;;;;;3.27;2.93;;;;;;;;;;5053883;28;20186;-88
2023/03/22 20:07:26;;;;;;;3.40;3.07;;;;;;;;;;5052989;28;20237;-89
2023/03/22 20:09:53;;;;;;;3.10;2.73;;;;;;;;;;5053819;28;20217;-86
2023/03/22 20:12:21;;;;;;;3.83;3.47;;;;;;;;;;5052814;28;20237;-86
2023/03/22 20:14:48;;;;;;;3.43;2.80;;;;;;;;;;5053709;28;20206;-85
2023/03/22 20:17:15;;;;;;;4.63;3.10;;;;;;;;;;5052722;28;20257;-86
2023/03/22 20:19:42;;;;;;;3.30;3.00;;;;;;;;;;5053178;28;20205;-89
2023/03/22 20:22:10;;;;;;;3.10;2.80;;;;;;;;;;5052736;28;20272;-91
2023/03/22 20:24:39;;;;;;;3.47;3.03;;;;;;;;;;5053096;28;20198;-92
2023/03/22 20:27:07;;;;;;;2.47;2.20;;;;;;;;;;5052969;28;20276;-91
2023/03/22 20:29:34;;;;;;;2.70;2.50;;;;;;;;;;5053248;28;20595;-92
2023/03/22 20:32:02;;;;;;;3.30;2.33;;;;;;;;;;5052199;28;20233;-91
2023/03/22 20:34:29;;;;;;;4.23;2.57;;;;;;;;;;5053515;28;20260;-92
2023/03/22 20:36:56;;;;;;;12.13;10.63;;;;;;;;;;5052529;28;20226;-91
2023/03/22 20:39:25;;;;;;;14.27;10.03;;;;;;;;;;5053299;28;20612;-91
2023/03/22 20:41:53;;;;;;;9.77;8.67;;;;;;;;;;5052424;28;20234;-90
2023/03/22 20:44:23;;;;;;;4.03;2.53;;;;;;;;;;5053021;28;20217;-91
2023/03/22 20:46:50;;;;;;;2.10;1.60;;;;;;;;;;5052120;28;20283;-90
2023/03/22 20:49:17;;;;;;;1.73;1.43;;;;;;;;;;5052867;28;20631;-91
2023/03/22 20:51:44;;;;;;;3.60;2.20;;;;;;;;;;5052418;28;20647;-93
2023/03/22 20:54:11;;;;;;;2.93;2.60;;;;;;;;;;5052752;28;20210;-91
2023/03/22 20:56:38;;;;;;;4.00;3.43;;;;;;;;;;5052268;28;20216;-91
2023/03/22 20:59:07;;;;;;;2.30;2.10;;;;;;;;;;5052138;28;20665;-90
2023/03/22 21:01:34;;;;;;;5.83;4.73;;;;;;;;;;5051865;28;20226;-91
2023/03/22 21:04:01;;;;;;;5.43;4.47;;;;;;;;;;5088012;22;20529;-87
2023/03/22 21:06:28;;;;;;;3.77;2.90;;;;;;;;;;5074531;28;20194;-89
2023/03/22 21:08:55;;;;;;;2.37;1.80;;;;;;;;;;5074658;28;20259;-87
2023/03/22 21:11:22;;;;;;;3.07;1.80;;;;;;;;;;5073265;28;20229;-86
2023/03/22 21:13:49;;;;;;;1.57;1.40;;;;;;;;;;5073582;28;20610;-89
2023/03/22 21:16:19;;;;;;;2.17;1.67;;;;;;;;;;5074418;28;20208;-88
2023/03/22 21:18:46;;;;;;;1.57;1.43;;;;;;;;;;5068822;28;20226;-88
2023/03/22 21:21:13;;;;;;;1.30;1.20;;;;;;;;;;5054350;28;20209;-88
2023/03/22 21:23:40;;;;;;;3.17;1.37;;;;;;;;;;5059621;28;20244;-88